sensor_id;sensor_type;location;lat;lon;timestamp;temperature;humidity
16229;DHT22;8222;51.462;12.630;2022-12-18T00:01:51;-4.20;99.90
16229;DHT22;8222;51.462;12.630;2022-12-18T00:04:23;-4.50;99.90
16229;DHT22;8222;51.462;12.630;2022-12-18T00:06:49;-4.70;99.90
16229;DHT22;8222;51.462;12.630;2022-12-18T00:09:16;-4.80;99.90
16229;DHT22;8222;51.462;12.630;2022-12-18T00:11:42;-4.90;99.90
16229;DHT22;8222;51.462;12.630;2022-12-18T00:14:10;-4.90;99.90
16229;DHT22;8222;51.462;12.630;2022-12-18T00:16:37;-5.00;99.90
16229;DHT22;8222;51.462;12.630;2022-12-18T00:19:03;-5.00;99.90
16229;DHT22;8222;51.462;12.630;2022-12-18T00:21:31;-5.10;99.90
16229;DHT22;8222;51.462;12.630;2022-12-18T00:23:58;-5.00;99.90
16229;DHT22;8222;51.462;12.630;2022-12-18T00:26:29;-5.00;99.90
16229;DHT22;8222;51.462;12.630;2022-12-18T00:28:59;-4.90;99.90
16229;DHT22;8222;51.462;12.630;2022-12-18T00:31:25;-4.90;99.90
16229;DHT22;8222;51.462;12.630;2022-12-18T00:33:51;-5.00;99.90
16229;DHT22;8222;51.462;12.630;2022-12-18T00:36:20;-5.00;99.90
16229;DHT22;8222;51.462;12.630;2022-12-18T00:38:46;-4.90;99.90
16229;DHT22;8222;51.462;12.630;2022-12-18T00:41:14;-4.80;99.90
16229;DHT22;8222;51.462;12.630;2022-12-18T00:44:02;-4.80;99.90
16229;DHT22;8222;51.462;12.630;2022-12-18T00:46:30;-4.80;99.90
16229;DHT22;8222;51.462;12.630;2022-12-18T00:48:56;-4.90;99.90
16229;DHT22;8222;51.462;12.630;2022-12-18T00:51:23;-5.00;99.90
16229;DHT22;8222;51.462;12.630;2022-12-18T00:53:48;-5.00;99.90
16229;DHT22;8222;51.462;12.630;2022-12-18T00:56:14;-4.90;99.90
16229;DHT22;8222;51.462;12.630;2022-12-18T00:58:40;-5.00;99.90
16229;DHT22;8222;51.462;12.630;2022-12-18T01:01:06;-5.00;99.90
16229;DHT22;8222;51.462;12.630;2022-12-18T01:03:34;-4.10;99.90
16229;DHT22;8222;51.462;12.630;2022-12-18T01:06:04;-5.10;99.90
16229;DHT22;8222;51.462;12.630;2022-12-18T01:08:30;-5.20;99.90
16229;DHT22;8222;51.462;12.630;2022-12-18T01:10:55;-5.30;99.90
16229;DHT22;8222;51.462;12.630;2022-12-18T01:13:21;-5.30;99.90
16229;DHT22;8222;51.462;12.630;2022-12-18T01:15:52;-5.30;99.90
16229;DHT22;8222;51.462;12.630;2022-12-18T01:18:17;-5.40;99.90
16229;DHT22;8222;51.462;12.630;2022-12-18T01:20:43;-5.50;99.90
16229;DHT22;8222;51.462;12.630;2022-12-18T01:23:09;-5.50;99.90
16229;DHT22;8222;51.462;12.630;2022-12-18T01:25:38;-5.40;99.90
16229;DHT22;8222;51.462;12.630;2022-12-18T01:28:03;-5.30;99.90
16229;DHT22;8222;51.462;12.630;2022-12-18T01:30:31;-5.30;99.90
16229;DHT22;8222;51.462;12.630;2022-12-18T01:32:56;-5.40;99.90
16229;DHT22;8222;51.462;12.630;2022-12-18T01:35:22;-5.50;99.90
16229;DHT22;8222;51.462;12.630;2022-12-18T01:37:48;-5.50;99.90
16229;DHT22;8222;51.462;12.630;2022-12-18T01:40:14;-5.40;99.90
16229;DHT22;8222;51.462;12.630;2022-12-18T01:42:39;-5.40;99.90
16229;DHT22;8222;51.462;12.630;2022-12-18T01:45:31;-5.50;99.90
16229;DHT22;8222;51.462;12.630;2022-12-18T01:48:06;-5.40;99.90
16229;DHT22;8222;51.462;12.630;2022-12-18T01:50:40;-5.40;99.90
16229;DHT22;8222;51.462;12.630;2022-12-18T01:53:11;-5.50;99.90
16229;DHT22;8222;51.462;12.630;2022-12-18T01:55:53;-5.50;99.90
16229;DHT22;8222;51.462;12.630;2022-12-18T01:58:20;-5.50;99.90
16229;DHT22;8222;51.462;12.630;2022-12-18T02:00:48;-5.40;99.90
16229;DHT22;8222;51.462;12.630;2022-12-18T02:03:13;-5.20;99.90
16229;DHT22;8222;51.462;12.630;2022-12-18T02:08:27;-5.60;99.90
16229;DHT22;8222;51.462;12.630;2022-12-18T02:18:44;-5.90;99.90
16229;DHT22;8222;51.462;12.630;2022-12-18T02:26:48;-6.00;99.90
16229;DHT22;8222;51.462;12.630;2022-12-18T02:29:22;-6.00;99.90
16229;DHT22;8222;51.462;12.630;2022-12-18T02:31:52;-6.10;99.90
16229;DHT22;8222;51.462;12.630;2022-12-18T02:34:20;-6.00;99.90
16229;DHT22;8222;51.462;12.630;2022-12-18T02:36:49;-6.10;99.90
16229;DHT22;8222;51.462;12.630;2022-12-18T02:39:16;-6.10;99.90
16229;DHT22;8222;51.462;12.630;2022-12-18T02:41:43;-6.10;99.90
16229;DHT22;8222;51.462;12.630;2022-12-18T02:44:11;-6.00;99.90
16229;DHT22;8222;51.462;12.630;2022-12-18T02:46:41;-6.10;99.90
16229;DHT22;8222;51.462;12.630;2022-12-18T02:51:50;-6.20;99.90
16229;DHT22;8222;51.462;12.630;2022-12-18T02:54:48;-6.10;99.90
16229;DHT22;8222;51.462;12.630;2022-12-18T02:57:32;-6.10;99.90
16229;DHT22;8222;51.462;12.630;2022-12-18T03:00:41;-6.00;99.90
16229;DHT22;8222;51.462;12.630;2022-12-18T03:03:39;-5.90;99.90
16229;DHT22;8222;51.462;12.630;2022-12-18T03:06:20;-6.10;99.90
16229;DHT22;8222;51.462;12.630;2022-12-18T03:08:50;-6.00;99.90
16229;DHT22;8222;51.462;12.630;2022-12-18T03:11:17;-6.00;99.90
16229;DHT22;8222;51.462;12.630;2022-12-18T03:14:04;-6.00;99.90
16229;DHT22;8222;51.462;12.630;2022-12-18T03:16:33;-5.90;99.90
16229;DHT22;8222;51.462;12.630;2022-12-18T03:19:01;-6.00;99.90
16229;DHT22;8222;51.462;12.630;2022-12-18T03:21:32;-6.10;99.90
16229;DHT22;8222;51.462;12.630;2022-12-18T03:24:01;-6.10;99.90
16229;DHT22;8222;51.462;12.630;2022-12-18T03:26:31;-6.20;99.90
16229;DHT22;8222;51.462;12.630;2022-12-18T03:29:05;-6.30;99.90
16229;DHT22;8222;51.462;12.630;2022-12-18T03:31:32;-6.30;99.90
16229;DHT22;8222;51.462;12.630;2022-12-18T03:34:12;-6.30;99.90
16229;DHT22;8222;51.462;12.630;2022-12-18T03:36:39;-6.30;99.90
16229;DHT22;8222;51.462;12.630;2022-12-18T03:39:05;-6.50;99.90
16229;DHT22;8222;51.462;12.630;2022-12-18T03:41:42;-6.50;99.90
16229;DHT22;8222;51.462;12.630;2022-12-18T03:44:15;-6.50;99.90
16229;DHT22;8222;51.462;12.630;2022-12-18T03:49:35;-6.70;99.90
16229;DHT22;8222;51.462;12.630;2022-12-18T03:52:06;-6.70;99.90
16229;DHT22;8222;51.462;12.630;2022-12-18T03:54:34;-6.50;99.90
16229;DHT22;8222;51.462;12.630;2022-12-18T03:57:06;-6.60;99.90
16229;DHT22;8222;51.462;12.630;2022-12-18T03:59:33;-6.60;99.90
16229;DHT22;8222;51.462;12.630;2022-12-18T04:02:01;-6.60;99.90
16229;DHT22;8222;51.462;12.630;2022-12-18T04:04:30;-6.70;99.90
16229;DHT22;8222;51.462;12.630;2022-12-18T04:06:57;-6.70;99.90
16229;DHT22;8222;51.462;12.630;2022-12-18T04:09:24;-6.60;99.90
16229;DHT22;8222;51.462;12.630;2022-12-18T04:11:51;-6.60;99.90
16229;DHT22;8222;51.462;12.630;2022-12-18T04:14:19;-6.70;99.90
16229;DHT22;8222;51.462;12.630;2022-12-18T04:16:45;-6.70;99.90
16229;DHT22;8222;51.462;12.630;2022-12-18T04:19:11;-6.70;99.90
16229;DHT22;8222;51.462;12.630;2022-12-18T04:21:36;-6.80;99.90
16229;DHT22;8222;51.462;12.630;2022-12-18T04:24:04;-6.70;99.90
16229;DHT22;8222;51.462;12.630;2022-12-18T04:26:30;-6.70;99.90
16229;DHT22;8222;51.462;12.630;2022-12-18T04:28:55;-5.90;99.90
16229;DHT22;8222;51.462;12.630;2022-12-18T04:31:23;-6.70;99.90
16229;DHT22;8222;51.462;12.630;2022-12-18T04:33:49;-6.70;99.90
16229;DHT22;8222;51.462;12.630;2022-12-18T04:36:15;-6.70;99.90
16229;DHT22;8222;51.462;12.630;2022-12-18T04:38:42;-6.80;99.90
16229;DHT22;8222;51.462;12.630;2022-12-18T04:41:09;-6.80;99.90
16229;DHT22;8222;51.462;12.630;2022-12-18T04:43:35;-6.80;99.90
16229;DHT22;8222;51.462;12.630;2022-12-18T04:46:03;-6.80;99.90
16229;DHT22;8222;51.462;12.630;2022-12-18T04:48:29;-6.90;99.90
16229;DHT22;8222;51.462;12.630;2022-12-18T04:50:55;-6.90;99.90
16229;DHT22;8222;51.462;12.630;2022-12-18T04:53:20;-7.00;99.90
16229;DHT22;8222;51.462;12.630;2022-12-18T04:55:48;-7.10;99.90
16229;DHT22;8222;51.462;12.630;2022-12-18T04:58:13;-7.10;99.90
16229;DHT22;8222;51.462;12.630;2022-12-18T05:00:39;-7.20;99.90
16229;DHT22;8222;51.462;12.630;2022-12-18T05:03:04;-7.10;99.90
16229;DHT22;8222;51.462;12.630;2022-12-18T05:05:30;-6.90;99.90
16229;DHT22;8222;51.462;12.630;2022-12-18T05:07:56;-6.90;99.90
16229;DHT22;8222;51.462;12.630;2022-12-18T05:10:21;-6.90;99.90
16229;DHT22;8222;51.462;12.630;2022-12-18T05:12:49;-6.90;99.90
16229;DHT22;8222;51.462;12.630;2022-12-18T05:15:29;-6.80;99.90
16229;DHT22;8222;51.462;12.630;2022-12-18T05:17:56;-6.90;99.90
16229;DHT22;8222;51.462;12.630;2022-12-18T05:20:22;-6.80;99.90
16229;DHT22;8222;51.462;12.630;2022-12-18T05:22:48;-6.90;99.90
16229;DHT22;8222;51.462;12.630;2022-12-18T05:25:14;-7.00;99.90
16229;DHT22;8222;51.462;12.630;2022-12-18T05:27:40;-6.90;99.90
16229;DHT22;8222;51.462;12.630;2022-12-18T05:30:06;-6.90;99.90
16229;DHT22;8222;51.462;12.630;2022-12-18T05:32:32;-6.80;99.90
16229;DHT22;8222;51.462;12.630;2022-12-18T05:34:58;-6.80;99.90
16229;DHT22;8222;51.462;12.630;2022-12-18T05:37:24;-6.80;99.90
16229;DHT22;8222;51.462;12.630;2022-12-18T05:39:49;-6.80;99.90
16229;DHT22;8222;51.462;12.630;2022-12-18T05:42:15;-6.80;99.90
16229;DHT22;8222;51.462;12.630;2022-12-18T05:44:40;-6.90;99.90
16229;DHT22;8222;51.462;12.630;2022-12-18T05:47:08;-7.00;99.90
16229;DHT22;8222;51.462;12.630;2022-12-18T05:49:34;-6.90;99.90
16229;DHT22;8222;51.462;12.630;2022-12-18T05:51:59;-6.90;99.90
16229;DHT22;8222;51.462;12.630;2022-12-18T05:54:27;-6.80;99.90
16229;DHT22;8222;51.462;12.630;2022-12-18T05:56:53;-6.30;99.90
16229;DHT22;8222;51.462;12.630;2022-12-18T05:59:19;-7.10;99.90
16229;DHT22;8222;51.462;12.630;2022-12-18T06:01:48;-7.10;99.90
16229;DHT22;8222;51.462;12.630;2022-12-18T06:04:14;-7.00;99.90
16229;DHT22;8222;51.462;12.630;2022-12-18T06:06:40;-7.10;99.90
16229;DHT22;8222;51.462;12.630;2022-12-18T06:09:05;-7.20;99.90
16229;DHT22;8222;51.462;12.630;2022-12-18T06:11:35;-7.10;99.90
16229;DHT22;8222;51.462;12.630;2022-12-18T06:14:01;-7.00;99.90
16229;DHT22;8222;51.462;12.630;2022-12-18T06:16:29;-7.00;99.90
16229;DHT22;8222;51.462;12.630;2022-12-18T06:18:59;-7.00;99.90
16229;DHT22;8222;51.462;12.630;2022-12-18T06:21:25;-7.00;99.90
16229;DHT22;8222;51.462;12.630;2022-12-18T06:23:51;-7.00;99.90
16229;DHT22;8222;51.462;12.630;2022-12-18T06:26:17;-7.00;99.90
16229;DHT22;8222;51.462;12.630;2022-12-18T06:28:42;-7.00;99.90
16229;DHT22;8222;51.462;12.630;2022-12-18T06:31:10;-7.00;99.90
16229;DHT22;8222;51.462;12.630;2022-12-18T06:33:37;-6.90;99.90
16229;DHT22;8222;51.462;12.630;2022-12-18T06:36:03;-6.90;99.90
16229;DHT22;8222;51.462;12.630;2022-12-18T06:38:32;-7.00;99.90
16229;DHT22;8222;51.462;12.630;2022-12-18T06:40:59;-7.10;99.90
16229;DHT22;8222;51.462;12.630;2022-12-18T06:43:25;-7.00;99.90
16229;DHT22;8222;51.462;12.630;2022-12-18T06:45:51;-7.00;99.90
16229;DHT22;8222;51.462;12.630;2022-12-18T06:48:21;-7.00;99.90
16229;DHT22;8222;51.462;12.630;2022-12-18T06:50:47;-6.90;99.90
16229;DHT22;8222;51.462;12.630;2022-12-18T06:53:13;-6.90;99.90
16229;DHT22;8222;51.462;12.630;2022-12-18T06:55:40;-6.90;99.90
16229;DHT22;8222;51.462;12.630;2022-12-18T06:58:06;-6.70;99.90
16229;DHT22;8222;51.462;12.630;2022-12-18T07:00:34;-6.70;99.90
16229;DHT22;8222;51.462;12.630;2022-12-18T07:02:59;-6.60;99.90
16229;DHT22;8222;51.462;12.630;2022-12-18T07:05:25;-5.90;99.90
16229;DHT22;8222;51.462;12.630;2022-12-18T07:07:52;-6.50;99.90
16229;DHT22;8222;51.462;12.630;2022-12-18T07:10:18;-6.50;99.90
16229;DHT22;8222;51.462;12.630;2022-12-18T07:12:44;-6.50;99.90
16229;DHT22;8222;51.462;12.630;2022-12-18T07:15:09;-6.50;99.90
16229;DHT22;8222;51.462;12.630;2022-12-18T07:17:35;-6.60;99.90
16229;DHT22;8222;51.462;12.630;2022-12-18T07:20:01;-6.50;99.90
16229;DHT22;8222;51.462;12.630;2022-12-18T07:22:27;-5.80;99.90
16229;DHT22;8222;51.462;12.630;2022-12-18T07:24:52;-6.60;99.90
16229;DHT22;8222;51.462;12.630;2022-12-18T07:27:20;-6.60;99.90
16229;DHT22;8222;51.462;12.630;2022-12-18T07:29:46;-6.50;99.90
16229;DHT22;8222;51.462;12.630;2022-12-18T07:32:12;-6.40;99.90
16229;DHT22;8222;51.462;12.630;2022-12-18T07:34:37;-6.50;99.90
16229;DHT22;8222;51.462;12.630;2022-12-18T07:37:03;-6.50;99.90
16229;DHT22;8222;51.462;12.630;2022-12-18T07:39:29;-6.50;99.90
16229;DHT22;8222;51.462;12.630;2022-12-18T07:41:55;-6.50;99.90
16229;DHT22;8222;51.462;12.630;2022-12-18T07:44:40;-6.00;99.90
16229;DHT22;8222;51.462;12.630;2022-12-18T07:47:05;-6.40;99.90
16229;DHT22;8222;51.462;12.630;2022-12-18T07:49:33;-6.40;99.90
16229;DHT22;8222;51.462;12.630;2022-12-18T07:51:59;-6.30;99.90
16229;DHT22;8222;51.462;12.630;2022-12-18T07:54:25;-6.30;99.90
16229;DHT22;8222;51.462;12.630;2022-12-18T07:56:51;-6.40;99.90
16229;DHT22;8222;51.462;12.630;2022-12-18T07:59:19;-6.40;99.90
16229;DHT22;8222;51.462;12.630;2022-12-18T08:01:44;-6.30;99.90
16229;DHT22;8222;51.462;12.630;2022-12-18T08:04:10;-6.20;99.90
16229;DHT22;8222;51.462;12.630;2022-12-18T08:06:36;-6.00;99.90
16229;DHT22;8222;51.462;12.630;2022-12-18T08:09:01;-5.90;99.90
16229;DHT22;8222;51.462;12.630;2022-12-18T08:11:30;-5.30;99.90
16229;DHT22;8222;51.462;12.630;2022-12-18T08:13:55;-5.90;99.90
16229;DHT22;8222;51.462;12.630;2022-12-18T08:16:22;-5.90;99.90
16229;DHT22;8222;51.462;12.630;2022-12-18T08:18:48;-5.80;99.90
16229;DHT22;8222;51.462;12.630;2022-12-18T08:21:16;-5.60;99.90
16229;DHT22;8222;51.462;12.630;2022-12-18T08:23:42;-5.60;99.90
16229;DHT22;8222;51.462;12.630;2022-12-18T08:26:09;-5.40;99.90
16229;DHT22;8222;51.462;12.630;2022-12-18T08:28:34;-5.50;99.90
16229;DHT22;8222;51.462;12.630;2022-12-18T08:31:00;-5.40;99.90
16229;DHT22;8222;51.462;12.630;2022-12-18T08:33:28;-5.20;99.90
16229;DHT22;8222;51.462;12.630;2022-12-18T08:35:53;-5.10;99.90
16229;DHT22;8222;51.462;12.630;2022-12-18T08:38:19;-5.20;99.90
16229;DHT22;8222;51.462;12.630;2022-12-18T08:40:44;-5.10;99.90
16229;DHT22;8222;51.462;12.630;2022-12-18T08:43:11;-4.80;99.90
16229;DHT22;8222;51.462;12.630;2022-12-18T08:45:57;-4.70;99.90
16229;DHT22;8222;51.462;12.630;2022-12-18T08:48:24;-4.60;99.90
16229;DHT22;8222;51.462;12.630;2022-12-18T08:50:59;-4.60;99.90
16229;DHT22;8222;51.462;12.630;2022-12-18T08:53:26;-4.60;99.90
16229;DHT22;8222;51.462;12.630;2022-12-18T08:55:52;-4.60;99.90
16229;DHT22;8222;51.462;12.630;2022-12-18T08:58:18;-4.70;99.90
16229;DHT22;8222;51.462;12.630;2022-12-18T09:00:43;-4.60;99.90
16229;DHT22;8222;51.462;12.630;2022-12-18T09:03:17;-4.70;99.90
16229;DHT22;8222;51.462;12.630;2022-12-18T09:05:46;-4.50;99.90
16229;DHT22;8222;51.462;12.630;2022-12-18T09:08:12;-4.40;99.90
16229;DHT22;8222;51.462;12.630;2022-12-18T09:10:42;-4.50;99.90
16229;DHT22;8222;51.462;12.630;2022-12-18T09:13:10;-4.50;99.90
16229;DHT22;8222;51.462;12.630;2022-12-18T09:15:50;-4.50;99.90
16229;DHT22;8222;51.462;12.630;2022-12-18T09:18:17;-4.40;99.90
16229;DHT22;8222;51.462;12.630;2022-12-18T09:20:43;-4.20;99.90
16229;DHT22;8222;51.462;12.630;2022-12-18T09:23:10;-3.90;99.90
16229;DHT22;8222;51.462;12.630;2022-12-18T09:25:37;-3.90;99.90
16229;DHT22;8222;51.462;12.630;2022-12-18T09:28:05;-3.80;99.90
16229;DHT22;8222;51.462;12.630;2022-12-18T09:30:31;-3.70;99.90
16229;DHT22;8222;51.462;12.630;2022-12-18T09:32:59;-3.70;99.90
16229;DHT22;8222;51.462;12.630;2022-12-18T09:35:27;-3.70;99.90
16229;DHT22;8222;51.462;12.630;2022-12-18T09:37:53;-3.70;99.90
16229;DHT22;8222;51.462;12.630;2022-12-18T09:40:25;-3.70;99.90
16229;DHT22;8222;51.462;12.630;2022-12-18T09:43:00;-3.80;99.90
16229;DHT22;8222;51.462;12.630;2022-12-18T09:45:33;-4.00;99.90
16229;DHT22;8222;51.462;12.630;2022-12-18T09:48:04;-4.00;99.90
16229;DHT22;8222;51.462;12.630;2022-12-18T09:50:34;-4.00;99.90
16229;DHT22;8222;51.462;12.630;2022-12-18T09:53:06;-3.90;99.90
16229;DHT22;8222;51.462;12.630;2022-12-18T09:55:42;-3.70;99.90
16229;DHT22;8222;51.462;12.630;2022-12-18T09:58:39;-3.60;99.90
16229;DHT22;8222;51.462;12.630;2022-12-18T10:01:18;-3.60;99.90
16229;DHT22;8222;51.462;12.630;2022-12-18T10:03:44;-2.60;99.90
16229;DHT22;8222;51.462;12.630;2022-12-18T10:06:50;-3.50;99.90
16229;DHT22;8222;51.462;12.630;2022-12-18T10:19:56;-3.30;99.90
16229;DHT22;8222;51.462;12.630;2022-12-18T10:23:01;-3.20;99.90
16229;DHT22;8222;51.462;12.630;2022-12-18T10:28:18;-3.20;99.90
16229;DHT22;8222;51.462;12.630;2022-12-18T10:30:44;-3.20;99.90
16229;DHT22;8222;51.462;12.630;2022-12-18T10:33:17;-3.00;99.90
16229;DHT22;8222;51.462;12.630;2022-12-18T10:35:47;-2.80;99.90
16229;DHT22;8222;51.462;12.630;2022-12-18T10:40:53;-2.50;99.90
16229;DHT22;8222;51.462;12.630;2022-12-18T10:43:28;-2.40;99.90
16229;DHT22;8222;51.462;12.630;2022-12-18T10:46:01;-2.20;99.90
16229;DHT22;8222;51.462;12.630;2022-12-18T10:48:28;-1.90;99.90
16229;DHT22;8222;51.462;12.630;2022-12-18T10:50:54;-2.20;99.90
16229;DHT22;8222;51.462;12.630;2022-12-18T10:53:26;-2.30;99.90
16229;DHT22;8222;51.462;12.630;2022-12-18T10:55:54;-2.20;99.90
16229;DHT22;8222;51.462;12.630;2022-12-18T11:06:15;-2.20;99.90
16229;DHT22;8222;51.462;12.630;2022-12-18T11:08:42;-1.90;99.90
16229;DHT22;8222;51.462;12.630;2022-12-18T11:11:22;-1.70;99.90
16229;DHT22;8222;51.462;12.630;2022-12-18T11:14:12;-1.50;99.90
16229;DHT22;8222;51.462;12.630;2022-12-18T11:16:46;-1.60;99.90
16229;DHT22;8222;51.462;12.630;2022-12-18T11:19:35;-1.70;99.90
16229;DHT22;8222;51.462;12.630;2022-12-18T11:22:16;-1.60;99.90
16229;DHT22;8222;51.462;12.630;2022-12-18T11:27:21;-1.90;99.90
16229;DHT22;8222;51.462;12.630;2022-12-18T11:29:49;-2.00;99.90
16229;DHT22;8222;51.462;12.630;2022-12-18T11:32:38;-1.90;99.90
16229;DHT22;8222;51.462;12.630;2022-12-18T11:37:43;-1.50;99.90
16229;DHT22;8222;51.462;12.630;2022-12-18T11:40:22;-1.30;99.90
16229;DHT22;8222;51.462;12.630;2022-12-18T11:45:47;-1.20;99.90
16229;DHT22;8222;51.462;12.630;2022-12-18T11:48:33;-1.10;99.90
16229;DHT22;8222;51.462;12.630;2022-12-18T11:51:01;-1.30;99.90
16229;DHT22;8222;51.462;12.630;2022-12-18T11:53:30;-1.10;99.90
16229;DHT22;8222;51.462;12.630;2022-12-18T11:56:03;-1.00;99.90
16229;DHT22;8222;51.462;12.630;2022-12-18T12:04:56;-0.70;99.90
16229;DHT22;8222;51.462;12.630;2022-12-18T12:07:47;1.40;99.90
16229;DHT22;8222;51.462;12.630;2022-12-18T12:10:43;-0.80;99.90
16229;DHT22;8222;51.462;12.630;2022-12-18T12:21:41;-0.50;99.90
16229;DHT22;8222;51.462;12.630;2022-12-18T12:24:29;-0.50;99.90
16229;DHT22;8222;51.462;12.630;2022-12-18T12:30:21;-0.70;99.90
16229;DHT22;8222;51.462;12.630;2022-12-18T12:40:52;-1.10;99.90
16229;DHT22;8222;51.462;12.630;2022-12-18T12:43:24;-1.10;99.90
16229;DHT22;8222;51.462;12.630;2022-12-18T12:45:55;-1.10;99.90
16229;DHT22;8222;51.462;12.630;2022-12-18T12:51:21;-1.20;99.90
16229;DHT22;8222;51.462;12.630;2022-12-18T12:53:48;-0.80;99.90
16229;DHT22;8222;51.462;12.630;2022-12-18T12:56:16;-1.40;99.90
16229;DHT22;8222;51.462;12.630;2022-12-18T12:58:49;-1.50;99.90
16229;DHT22;8222;51.462;12.630;2022-12-18T13:01:27;-1.60;99.90
16229;DHT22;8222;51.462;12.630;2022-12-18T13:04:00;-1.40;99.90
16229;DHT22;8222;51.462;12.630;2022-12-18T13:06:53;-1.40;99.90
16229;DHT22;8222;51.462;12.630;2022-12-18T13:09:20;-1.30;99.90
16229;DHT22;8222;51.462;12.630;2022-12-18T13:11:46;-1.00;99.90
16229;DHT22;8222;51.462;12.630;2022-12-18T13:14:39;-1.00;99.90
16229;DHT22;8222;51.462;12.630;2022-12-18T13:17:27;-1.10;99.90
16229;DHT22;8222;51.462;12.630;2022-12-18T13:20:12;-1.00;99.90
16229;DHT22;8222;51.462;12.630;2022-12-18T13:22:51;-0.90;99.90
16229;DHT22;8222;51.462;12.630;2022-12-18T13:25:37;-1.00;99.90
16229;DHT22;8222;51.462;12.630;2022-12-18T13:30:47;-1.00;99.90
16229;DHT22;8222;51.462;12.630;2022-12-18T13:35:42;-1.20;99.90
16229;DHT22;8222;51.462;12.630;2022-12-18T13:41:02;-1.40;99.90
16229;DHT22;8222;51.462;12.630;2022-12-18T13:51:28;-1.50;99.90
16229;DHT22;8222;51.462;12.630;2022-12-18T13:56:47;-1.80;99.90
16229;DHT22;8222;51.462;12.630;2022-12-18T14:01:58;-2.00;99.90
16229;DHT22;8222;51.462;12.630;2022-12-18T14:04:28;-2.00;99.90
16229;DHT22;8222;51.462;12.630;2022-12-18T14:07:18;-2.00;99.90
16229;DHT22;8222;51.462;12.630;2022-12-18T14:09:52;-2.00;99.90
16229;DHT22;8222;51.462;12.630;2022-12-18T14:12:31;-2.00;99.90
16229;DHT22;8222;51.462;12.630;2022-12-18T14:15:35;-2.20;99.90
16229;DHT22;8222;51.462;12.630;2022-12-18T14:20:57;-2.00;99.90
16229;DHT22;8222;51.462;12.630;2022-12-18T14:23:39;-2.00;99.90
16229;DHT22;8222;51.462;12.630;2022-12-18T14:26:27;-2.10;99.90
16229;DHT22;8222;51.462;12.630;2022-12-18T14:29:17;-2.40;99.90
16229;DHT22;8222;51.462;12.630;2022-12-18T14:31:45;-2.40;99.90
16229;DHT22;8222;51.462;12.630;2022-12-18T14:34:16;-2.40;99.90
16229;DHT22;8222;51.462;12.630;2022-12-18T14:36:52;-2.50;99.90
16229;DHT22;8222;51.462;12.630;2022-12-18T14:39:18;-2.50;99.90
16229;DHT22;8222;51.462;12.630;2022-12-18T14:41:44;-2.40;99.90
16229;DHT22;8222;51.462;12.630;2022-12-18T14:44:12;-2.30;99.90
16229;DHT22;8222;51.462;12.630;2022-12-18T14:46:46;-2.30;99.90
16229;DHT22;8222;51.462;12.630;2022-12-18T14:49:25;-2.20;99.90
16229;DHT22;8222;51.462;12.630;2022-12-18T14:52:03;-2.40;99.90
16229;DHT22;8222;51.462;12.630;2022-12-18T14:54:32;-2.40;99.90
16229;DHT22;8222;51.462;12.630;2022-12-18T14:57:24;-2.60;99.90
16229;DHT22;8222;51.462;12.630;2022-12-18T14:59:50;-2.80;99.90
16229;DHT22;8222;51.462;12.630;2022-12-18T15:02:27;-2.70;99.90
16229;DHT22;8222;51.462;12.630;2022-12-18T15:05:02;-2.60;99.90
16229;DHT22;8222;51.462;12.630;2022-12-18T15:07:40;-2.70;99.90
16229;DHT22;8222;51.462;12.630;2022-12-18T15:10:13;-2.60;99.90
16229;DHT22;8222;51.462;12.630;2022-12-18T15:12:41;-2.60;99.90
16229;DHT22;8222;51.462;12.630;2022-12-18T15:18:21;-2.60;99.90
16229;DHT22;8222;51.462;12.630;2022-12-18T15:20:59;-2.50;99.90
16229;DHT22;8222;51.462;12.630;2022-12-18T15:26:10;-2.60;99.90
16229;DHT22;8222;51.462;12.630;2022-12-18T15:28:53;-2.70;99.90
16229;DHT22;8222;51.462;12.630;2022-12-18T15:34:22;-2.80;99.90
16229;DHT22;8222;51.462;12.630;2022-12-18T15:36:50;-2.70;99.90
16229;DHT22;8222;51.462;12.630;2022-12-18T15:39:18;-2.80;99.90
16229;DHT22;8222;51.462;12.630;2022-12-18T15:41:44;-2.70;99.90
16229;DHT22;8222;51.462;12.630;2022-12-18T15:44:29;-2.60;99.90
16229;DHT22;8222;51.462;12.630;2022-12-18T15:46:55;-2.80;99.90
16229;DHT22;8222;51.462;12.630;2022-12-18T15:49:21;-2.90;99.90
16229;DHT22;8222;51.462;12.630;2022-12-18T15:51:51;-2.90;99.90
16229;DHT22;8222;51.462;12.630;2022-12-18T15:54:17;-2.80;99.90
16229;DHT22;8222;51.462;12.630;2022-12-18T15:57:03;-2.90;99.90
16229;DHT22;8222;51.462;12.630;2022-12-18T15:59:52;-3.00;99.90
16229;DHT22;8222;51.462;12.630;2022-12-18T16:02:19;-2.90;99.90
16229;DHT22;8222;51.462;12.630;2022-12-18T16:04:45;-3.00;99.90
16229;DHT22;8222;51.462;12.630;2022-12-18T16:07:13;-2.90;99.90
16229;DHT22;8222;51.462;12.630;2022-12-18T16:09:39;-2.70;99.90
16229;DHT22;8222;51.462;12.630;2022-12-18T16:12:25;-2.70;99.90
16229;DHT22;8222;51.462;12.630;2022-12-18T16:14:51;-2.70;99.90
16229;DHT22;8222;51.462;12.630;2022-12-18T16:17:16;-2.70;99.90
16229;DHT22;8222;51.462;12.630;2022-12-18T16:19:42;-2.60;99.90
16229;DHT22;8222;51.462;12.630;2022-12-18T16:22:19;-2.60;99.90
16229;DHT22;8222;51.462;12.630;2022-12-18T16:24:46;-2.60;99.90
16229;DHT22;8222;51.462;12.630;2022-12-18T16:27:13;-2.50;99.90
16229;DHT22;8222;51.462;12.630;2022-12-18T16:29:39;-2.40;99.90
16229;DHT22;8222;51.462;12.630;2022-12-18T16:32:05;-2.40;99.90
16229;DHT22;8222;51.462;12.630;2022-12-18T16:34:34;-2.60;99.90
16229;DHT22;8222;51.462;12.630;2022-12-18T16:37:05;-2.70;99.90
16229;DHT22;8222;51.462;12.630;2022-12-18T16:39:33;-2.80;99.90
16229;DHT22;8222;51.462;12.630;2022-12-18T16:42:03;-2.70;99.90
16229;DHT22;8222;51.462;12.630;2022-12-18T16:44:30;-2.90;99.90
16229;DHT22;8222;51.462;12.630;2022-12-18T16:46:55;-2.80;99.90
16229;DHT22;8222;51.462;12.630;2022-12-18T16:49:27;-2.80;99.90
16229;DHT22;8222;51.462;12.630;2022-12-18T16:51:53;-2.80;99.90
16229;DHT22;8222;51.462;12.630;2022-12-18T16:54:19;-2.70;99.90
16229;DHT22;8222;51.462;12.630;2022-12-18T16:56:45;-2.90;99.90
16229;DHT22;8222;51.462;12.630;2022-12-18T16:59:14;-2.90;99.90
16229;DHT22;8222;51.462;12.630;2022-12-18T17:01:42;-2.90;99.90
16229;DHT22;8222;51.462;12.630;2022-12-18T17:04:08;-3.00;99.90
16229;DHT22;8222;51.462;12.630;2022-12-18T17:06:38;-3.00;99.90
16229;DHT22;8222;51.462;12.630;2022-12-18T17:09:06;-3.10;99.90
16229;DHT22;8222;51.462;12.630;2022-12-18T17:11:33;-3.00;99.90
16229;DHT22;8222;51.462;12.630;2022-12-18T17:13:59;-3.00;99.90
16229;DHT22;8222;51.462;12.630;2022-12-18T17:16:30;-3.00;99.90
16229;DHT22;8222;51.462;12.630;2022-12-18T17:18:57;-3.10;99.90
16229;DHT22;8222;51.462;12.630;2022-12-18T17:21:23;-3.10;99.90
16229;DHT22;8222;51.462;12.630;2022-12-18T17:23:48;-3.10;99.90
16229;DHT22;8222;51.462;12.630;2022-12-18T17:26:14;-3.00;99.90
16229;DHT22;8222;51.462;12.630;2022-12-18T17:28:40;-3.10;99.90
16229;DHT22;8222;51.462;12.630;2022-12-18T17:31:16;-3.20;99.90
16229;DHT22;8222;51.462;12.630;2022-12-18T17:33:44;-3.20;99.90
16229;DHT22;8222;51.462;12.630;2022-12-18T17:36:10;-3.00;99.90
16229;DHT22;8222;51.462;12.630;2022-12-18T17:38:36;-3.10;99.90
16229;DHT22;8222;51.462;12.630;2022-12-18T17:41:08;-3.20;99.90
16229;DHT22;8222;51.462;12.630;2022-12-18T17:43:34;-3.10;99.90
16229;DHT22;8222;51.462;12.630;2022-12-18T17:46:04;-3.00;99.90